sensor_id;sensor_type;location;lat;lon;timestamp;P1;durP1;ratioP1;P2;durP2;ratioP2
63965;SDS011;50151;52.030;5.350;2023-12-28T00:02:09;5.75;;;2.08;;
63965;SDS011;50151;52.030;5.350;2023-12-28T00:04:36;4.25;;;2.10;;
63965;SDS011;50151;52.030;5.350;2023-12-28T00:07:03;6.65;;;1.92;;
63965;SDS011;50151;52.030;5.350;2023-12-28T00:09:30;5.68;;;2.33;;
63965;SDS011;50151;52.030;5.350;2023-12-28T00:11:57;6.78;;;2.15;;
63965;SDS011;50151;52.030;5.350;2023-12-28T00:14:25;2.97;;;1.88;;
63965;SDS011;50151;52.030;5.350;2023-12-28T00:16:51;4.93;;;2.00;;
63965;SDS011;50151;52.030;5.350;2023-12-28T00:19:18;3.78;;;1.95;;
63965;SDS011;50151;52.030;5.350;2023-12-28T00:21:47;5.00;;;2.60;;
63965;SDS011;50151;52.030;5.350;2023-12-28T00:24:15;6.15;;;2.00;;
63965;SDS011;50151;52.030;5.350;2023-12-28T00:26:42;5.43;;;2.30;;
63965;SDS011;50151;52.030;5.350;2023-12-28T00:29:09;4.15;;;1.92;;
63965;SDS011;50151;52.030;5.350;2023-12-28T00:31:36;5.28;;;2.28;;
63965;SDS011;50151;52.030;5.350;2023-12-28T00:34:03;5.68;;;2.22;;
63965;SDS011;50151;52.030;5.350;2023-12-28T00:36:30;5.70;;;1.63;;
63965;SDS011;50151;52.030;5.350;2023-12-28T00:38:57;3.38;;;1.77;;
63965;SDS011;50151;52.030;5.350;2023-12-28T00:41:24;4.05;;;2.40;;
63965;SDS011;50151;52.030;5.350;2023-12-28T00:43:51;8.13;;;2.00;;
63965;SDS011;50151;52.030;5.350;2023-12-28T00:46:18;5.03;;;2.03;;
63965;SDS011;50151;52.030;5.350;2023-12-28T00:48:44;4.90;;;1.85;;
63965;SDS011;50151;52.030;5.350;2023-12-28T00:51:11;7.72;;;2.22;;
63965;SDS011;50151;52.030;5.350;2023-12-28T00:53:38;3.75;;;1.80;;
63965;SDS011;50151;52.030;5.350;2023-12-28T00:56:05;5.05;;;2.40;;
63965;SDS011;50151;52.030;5.350;2023-12-28T00:58:32;7.18;;;2.38;;
63965;SDS011;50151;52.030;5.350;2023-12-28T01:00:59;5.47;;;2.22;;
63965;SDS011;50151;52.030;5.350;2023-12-28T01:03:25;5.30;;;2.35;;
63965;SDS011;50151;52.030;5.350;2023-12-28T01:05:52;4.05;;;2.20;;
63965;SDS011;50151;52.030;5.350;2023-12-28T01:08:19;4.45;;;1.65;;
63965;SDS011;50151;52.030;5.350;2023-12-28T01:10:46;9.15;;;2.60;;
63965;SDS011;50151;52.030;5.350;2023-12-28T01:13:13;4.30;;;1.92;;
63965;SDS011;50151;52.030;5.350;2023-12-28T01:15:40;5.07;;;2.10;;
63965;SDS011;50151;52.030;5.350;2023-12-28T01:18:07;4.75;;;1.98;;
63965;SDS011;50151;52.030;5.350;2023-12-28T01:20:34;4.20;;;1.95;;
63965;SDS011;50151;52.030;5.350;2023-12-28T01:23:01;4.63;;;1.70;;
63965;SDS011;50151;52.030;5.350;2023-12-28T01:25:28;5.85;;;2.10;;
63965;SDS011;50151;52.030;5.350;2023-12-28T01:27:55;2.90;;;1.70;;
63965;SDS011;50151;52.030;5.350;2023-12-28T01:30:22;4.57;;;2.03;;
63965;SDS011;50151;52.030;5.350;2023-12-28T01:32:49;6.53;;;2.22;;
63965;SDS011;50151;52.030;5.350;2023-12-28T01:35:16;4.78;;;1.98;;
63965;SDS011;50151;52.030;5.350;2023-12-28T01:37:43;8.18;;;2.30;;
63965;SDS011;50151;52.030;5.350;2023-12-28T01:40:10;5.95;;;2.08;;
63965;SDS011;50151;52.030;5.350;2023-12-28T01:42:37;4.10;;;1.80;;
63965;SDS011;50151;52.030;5.350;2023-12-28T01:45:05;7.15;;;2.03;;
63965;SDS011;50151;52.030;5.350;2023-12-28T01:47:32;2.50;;;1.50;;
63965;SDS011;50151;52.030;5.350;2023-12-28T01:50:00;5.78;;;2.15;;
63965;SDS011;50151;52.030;5.350;2023-12-28T01:52:27;4.20;;;2.03;;
63965;SDS011;50151;52.030;5.350;2023-12-28T01:54:54;3.72;;;2.13;;
63965;SDS011;50151;52.030;5.350;2023-12-28T01:57:21;6.78;;;1.73;;
63965;SDS011;50151;52.030;5.350;2023-12-28T01:59:49;3.17;;;1.70;;
63965;SDS011;50151;52.030;5.350;2023-12-28T02:02:16;3.50;;;1.95;;
63965;SDS011;50151;52.030;5.350;2023-12-28T02:04:43;3.58;;;1.40;;
63965;SDS011;50151;52.030;5.350;2023-12-28T02:07:11;3.00;;;1.63;;
63965;SDS011;50151;52.030;5.350;2023-12-28T02:09:40;6.60;;;2.33;;
63965;SDS011;50151;52.030;5.350;2023-12-28T02:12:07;3.65;;;1.42;;
63965;SDS011;50151;52.030;5.350;2023-12-28T02:14:34;5.60;;;2.10;;
63965;SDS011;50151;52.030;5.350;2023-12-28T02:17:21;4.72;;;1.95;;
63965;SDS011;50151;52.030;5.350;2023-12-28T02:19:55;6.45;;;1.80;;
63965;SDS011;50151;52.030;5.350;2023-12-28T02:22:24;8.05;;;2.08;;
63965;SDS011;50151;52.030;5.350;2023-12-28T02:25:05;5.95;;;1.88;;
63965;SDS011;50151;52.030;5.350;2023-12-28T02:27:33;5.60;;;1.90;;
63965;SDS011;50151;52.030;5.350;2023-12-28T02:30:09;3.70;;;1.60;;
63965;SDS011;50151;52.030;5.350;2023-12-28T02:35:40;10.10;;;1.90;;
63965;SDS011;50151;52.030;5.350;2023-12-28T02:38:10;3.72;;;1.75;;
63965;SDS011;50151;52.030;5.350;2023-12-28T02:40:38;8.13;;;1.80;;
63965;SDS011;50151;52.030;5.350;2023-12-28T02:43:07;5.47;;;2.08;;
63965;SDS011;50151;52.030;5.350;2023-12-28T02:45:34;7.75;;;1.55;;
63965;SDS011;50151;52.030;5.350;2023-12-28T02:48:02;7.38;;;1.45;;
63965;SDS011;50151;52.030;5.350;2023-12-28T02:50:30;3.70;;;1.65;;
63965;SDS011;50151;52.030;5.350;2023-12-28T02:52:58;3.85;;;1.50;;
63965;SDS011;50151;52.030;5.350;2023-12-28T02:55:25;3.78;;;1.25;;
63965;SDS011;50151;52.030;5.350;2023-12-28T02:57:53;4.07;;;1.45;;
63965;SDS011;50151;52.030;5.350;2023-12-28T03:00:22;4.97;;;1.88;;
63965;SDS011;50151;52.030;5.350;2023-12-28T03:02:49;6.03;;;1.95;;
63965;SDS011;50151;52.030;5.350;2023-12-28T03:05:16;7.07;;;1.83;;
63965;SDS011;50151;52.030;5.350;2023-12-28T03:07:43;9.82;;;1.85;;
63965;SDS011;50151;52.030;5.350;2023-12-28T03:10:10;6.07;;;1.70;;
63965;SDS011;50151;52.030;5.350;2023-12-28T03:12:40;6.15;;;1.58;;
63965;SDS011;50151;52.030;5.350;2023-12-28T03:15:07;4.97;;;1.52;;
63965;SDS011;50151;52.030;5.350;2023-12-28T03:17:34;7.15;;;1.92;;
63965;SDS011;50151;52.030;5.350;2023-12-28T03:20:03;3.47;;;1.38;;
63965;SDS011;50151;52.030;5.350;2023-12-28T03:22:31;8.13;;;1.52;;
63965;SDS011;50151;52.030;5.350;2023-12-28T03:24:58;3.85;;;1.38;;
63965;SDS011;50151;52.030;5.350;2023-12-28T03:27:25;3.15;;;1.60;;
63965;SDS011;50151;52.030;5.350;2023-12-28T03:29:52;6.57;;;1.80;;
63965;SDS011;50151;52.030;5.350;2023-12-28T03:32:18;8.38;;;1.85;;
63965;SDS011;50151;52.030;5.350;2023-12-28T03:34:45;9.73;;;1.33;;
63965;SDS011;50151;52.030;5.350;2023-12-28T03:37:12;7.10;;;1.80;;
63965;SDS011;50151;52.030;5.350;2023-12-28T03:39:39;3.22;;;1.40;;
63965;SDS011;50151;52.030;5.350;2023-12-28T03:42:06;7.78;;;1.95;;
63965;SDS011;50151;52.030;5.350;2023-12-28T03:44:32;11.82;;;1.73;;
63965;SDS011;50151;52.030;5.350;2023-12-28T03:46:59;2.72;;;1.02;;
63965;SDS011;50151;52.030;5.350;2023-12-28T03:49:26;8.35;;;1.83;;
63965;SDS011;50151;52.030;5.350;2023-12-28T03:51:53;3.22;;;1.30;;
63965;SDS011;50151;52.030;5.350;2023-12-28T03:54:20;4.15;;;1.42;;
63965;SDS011;50151;52.030;5.350;2023-12-28T03:56:47;6.35;;;2.05;;
63965;SDS011;50151;52.030;5.350;2023-12-28T03:59:13;7.90;;;1.85;;
63965;SDS011;50151;52.030;5.350;2023-12-28T04:01:44;6.70;;;1.92;;
63965;SDS011;50151;52.030;5.350;2023-12-28T04:04:10;11.70;;;2.25;;
63965;SDS011;50151;52.030;5.350;2023-12-28T04:06:38;9.38;;;2.22;;
63965;SDS011;50151;52.030;5.350;2023-12-28T04:09:05;6.25;;;1.75;;
63965;SDS011;50151;52.030;5.350;2023-12-28T04:11:32;5.80;;;1.63;;
63965;SDS011;50151;52.030;5.350;2023-12-28T04:13:59;9.05;;;1.90;;
63965;SDS011;50151;52.030;5.350;2023-12-28T04:16:26;6.78;;;1.95;;
63965;SDS011;50151;52.030;5.350;2023-12-28T04:18:53;4.30;;;1.33;;
63965;SDS011;50151;52.030;5.350;2023-12-28T04:21:20;6.32;;;1.27;;
63965;SDS011;50151;52.030;5.350;2023-12-28T04:23:48;4.68;;;1.48;;
63965;SDS011;50151;52.030;5.350;2023-12-28T04:26:17;7.70;;;1.60;;
63965;SDS011;50151;52.030;5.350;2023-12-28T04:28:45;7.15;;;1.95;;
63965;SDS011;50151;52.030;5.350;2023-12-28T04:31:12;8.70;;;1.75;;
63965;SDS011;50151;52.030;5.350;2023-12-28T04:33:39;7.00;;;1.70;;
63965;SDS011;50151;52.030;5.350;2023-12-28T04:36:06;5.88;;;1.45;;
63965;SDS011;50151;52.030;5.350;2023-12-28T04:38:33;6.93;;;1.75;;
63965;SDS011;50151;52.030;5.350;2023-12-28T04:41:01;7.90;;;2.08;;
63965;SDS011;50151;52.030;5.350;2023-12-28T04:43:28;5.95;;;1.60;;
63965;SDS011;50151;52.030;5.350;2023-12-28T04:45:55;10.70;;;1.88;;
63965;SDS011;50151;52.030;5.350;2023-12-28T04:48:22;6.68;;;1.42;;
63965;SDS011;50151;52.030;5.350;2023-12-28T04:50:51;8.38;;;1.63;;
63965;SDS011;50151;52.030;5.350;2023-12-28T04:53:19;11.00;;;1.85;;
63965;SDS011;50151;52.030;5.350;2023-12-28T04:55:46;9.95;;;2.13;;
63965;SDS011;50151;52.030;5.350;2023-12-28T04:58:13;10.93;;;1.90;;
63965;SDS011;50151;52.030;5.350;2023-12-28T05:00:40;7.82;;;1.90;;
63965;SDS011;50151;52.030;5.350;2023-12-28T05:03:07;14.80;;;1.67;;
63965;SDS011;50151;52.030;5.350;2023-12-28T05:05:34;7.22;;;1.80;;
63965;SDS011;50151;52.030;5.350;2023-12-28T05:08:01;6.63;;;1.58;;
63965;SDS011;50151;52.030;5.350;2023-12-28T05:10:28;11.85;;;2.17;;
63965;SDS011;50151;52.030;5.350;2023-12-28T05:12:54;13.70;;;2.13;;
63965;SDS011;50151;52.030;5.350;2023-12-28T05:15:27;13.30;;;2.47;;
63965;SDS011;50151;52.030;5.350;2023-12-28T05:17:55;9.32;;;1.80;;
63965;SDS011;50151;52.030;5.350;2023-12-28T05:20:22;7.05;;;1.30;;
63965;SDS011;50151;52.030;5.350;2023-12-28T05:22:49;9.63;;;1.83;;
63965;SDS011;50151;52.030;5.350;2023-12-28T05:25:16;6.60;;;1.80;;
63965;SDS011;50151;52.030;5.350;2023-12-28T05:27:43;8.05;;;1.52;;
63965;SDS011;50151;52.030;5.350;2023-12-28T05:30:10;10.02;;;1.98;;
63965;SDS011;50151;52.030;5.350;2023-12-28T05:32:38;8.57;;;1.90;;
63965;SDS011;50151;52.030;5.350;2023-12-28T05:35:06;7.80;;;2.00;;
63965;SDS011;50151;52.030;5.350;2023-12-28T05:37:33;10.02;;;2.10;;
63965;SDS011;50151;52.030;5.350;2023-12-28T05:40:00;11.27;;;1.92;;
63965;SDS011;50151;52.030;5.350;2023-12-28T05:42:27;11.25;;;2.10;;
63965;SDS011;50151;52.030;5.350;2023-12-28T05:44:54;7.95;;;2.10;;
63965;SDS011;50151;52.030;5.350;2023-12-28T05:47:20;9.77;;;1.48;;
63965;SDS011;50151;52.030;5.350;2023-12-28T05:49:47;11.05;;;1.90;;
63965;SDS011;50151;52.030;5.350;2023-12-28T05:52:14;10.05;;;2.10;;
63965;SDS011;50151;52.030;5.350;2023-12-28T05:54:43;10.05;;;1.80;;
63965;SDS011;50151;52.030;5.350;2023-12-28T05:57:10;13.25;;;2.22;;
63965;SDS011;50151;52.030;5.350;2023-12-28T05:59:37;16.92;;;2.60;;
63965;SDS011;50151;52.030;5.350;2023-12-28T06:02:06;9.80;;;1.25;;
63965;SDS011;50151;52.030;5.350;2023-12-28T06:04:33;9.85;;;1.73;;
63965;SDS011;50151;52.030;5.350;2023-12-28T06:07:00;9.43;;;1.63;;
63965;SDS011;50151;52.030;5.350;2023-12-28T06:09:28;10.48;;;1.60;;
63965;SDS011;50151;52.030;5.350;2023-12-28T06:11:55;12.93;;;2.47;;
63965;SDS011;50151;52.030;5.350;2023-12-28T06:14:22;9.40;;;1.80;;
63965;SDS011;50151;52.030;5.350;2023-12-28T06:16:48;10.60;;;2.63;;
63965;SDS011;50151;52.030;5.350;2023-12-28T06:19:15;12.00;;;2.35;;
63965;SDS011;50151;52.030;5.350;2023-12-28T06:21:42;12.48;;;2.15;;
63965;SDS011;50151;52.030;5.350;2023-12-28T06:24:09;11.65;;;2.25;;
63965;SDS011;50151;52.030;5.350;2023-12-28T06:26:39;9.70;;;2.10;;
63965;SDS011;50151;52.030;5.350;2023-12-28T06:29:07;13.02;;;2.47;;
63965;SDS011;50151;52.030;5.350;2023-12-28T06:31:38;13.60;;;2.53;;
63965;SDS011;50151;52.030;5.350;2023-12-28T06:34:06;11.93;;;2.13;;
63965;SDS011;50151;52.030;5.350;2023-12-28T06:36:33;13.50;;;2.15;;
63965;SDS011;50151;52.030;5.350;2023-12-28T06:39:00;14.80;;;2.30;;
63965;SDS011;50151;52.030;5.350;2023-12-28T06:41:27;9.63;;;1.90;;
63965;SDS011;50151;52.030;5.350;2023-12-28T06:43:54;10.63;;;2.22;;
63965;SDS011;50151;52.030;5.350;2023-12-28T06:46:21;16.05;;;2.42;;
63965;SDS011;50151;52.030;5.350;2023-12-28T06:48:48;10.65;;;2.00;;
63965;SDS011;50151;52.030;5.350;2023-12-28T06:51:16;9.63;;;1.65;;
63965;SDS011;50151;52.030;5.350;2023-12-28T06:53:45;11.55;;;2.38;;
63965;SDS011;50151;52.030;5.350;2023-12-28T06:56:12;16.15;;;2.90;;
63965;SDS011;50151;52.030;5.350;2023-12-28T06:58:38;18.92;;;2.33;;
63965;SDS011;50151;52.030;5.350;2023-12-28T07:01:05;12.25;;;2.50;;
63965;SDS011;50151;52.030;5.350;2023-12-28T07:03:32;12.07;;;2.25;;
63965;SDS011;50151;52.030;5.350;2023-12-28T07:06:00;13.98;;;2.30;;
63965;SDS011;50151;52.030;5.350;2023-12-28T07:08:27;5.25;;;1.70;;
63965;SDS011;50151;52.030;5.350;2023-12-28T07:10:54;14.63;;;2.55;;
63965;SDS011;50151;52.030;5.350;2023-12-28T07:13:21;16.40;;;2.63;;
63965;SDS011;50151;52.030;5.350;2023-12-28T07:15:47;8.18;;;2.10;;
63965;SDS011;50151;52.030;5.350;2023-12-28T07:18:14;9.20;;;1.73;;
63965;SDS011;50151;52.030;5.350;2023-12-28T07:20:41;16.77;;;2.38;;
63965;SDS011;50151;52.030;5.350;2023-12-28T07:23:08;14.85;;;2.30;;
63965;SDS011;50151;52.030;5.350;2023-12-28T07:25:35;11.80;;;2.70;;
63965;SDS011;50151;52.030;5.350;2023-12-28T07:28:02;10.77;;;2.35;;
63965;SDS011;50151;52.030;5.350;2023-12-28T07:30:29;8.52;;;1.90;;
63965;SDS011;50151;52.030;5.350;2023-12-28T07:32:56;10.40;;;2.22;;
63965;SDS011;50151;52.030;5.350;2023-12-28T07:35:23;12.00;;;2.00;;
63965;SDS011;50151;52.030;5.350;2023-12-28T07:37:50;12.52;;;2.55;;
63965;SDS011;50151;52.030;5.350;2023-12-28T07:40:17;10.88;;;2.38;;
63965;SDS011;50151;52.030;5.350;2023-12-28T07:42:44;9.20;;;2.10;;
63965;SDS011;50151;52.030;5.350;2023-12-28T07:45:10;12.40;;;2.10;;
63965;SDS011;50151;52.030;5.350;2023-12-28T07:47:37;11.05;;;1.88;;
63965;SDS011;50151;52.030;5.350;2023-12-28T07:50:05;11.02;;;2.15;;
63965;SDS011;50151;52.030;5.350;2023-12-28T07:52:32;11.88;;;2.17;;
63965;SDS011;50151;52.030;5.350;2023-12-28T07:54:59;12.13;;;1.92;;
63965;SDS011;50151;52.030;5.350;2023-12-28T07:57:26;13.00;;;2.13;;
63965;SDS011;50151;52.030;5.350;2023-12-28T07:59:53;11.50;;;2.03;;
63965;SDS011;50151;52.030;5.350;2023-12-28T08:02:19;15.05;;;2.15;;
63965;SDS011;50151;52.030;5.350;2023-12-28T08:04:47;6.97;;;1.33;;
63965;SDS011;50151;52.030;5.350;2023-12-28T08:07:15;14.80;;;2.42;;
63965;SDS011;50151;52.030;5.350;2023-12-28T08:09:41;16.02;;;2.67;;
63965;SDS011;50151;52.030;5.350;2023-12-28T08:12:08;10.73;;;2.38;;
63965;SDS011;50151;52.030;5.350;2023-12-28T08:14:35;13.20;;;2.72;;
63965;SDS011;50151;52.030;5.350;2023-12-28T08:17:01;16.15;;;2.00;;
63965;SDS011;50151;52.030;5.350;2023-12-28T08:19:29;11.70;;;1.92;;
63965;SDS011;50151;52.030;5.350;2023-12-28T08:21:56;16.83;;;2.90;;
63965;SDS011;50151;52.030;5.350;2023-12-28T08:24:23;21.90;;;2.72;;
63965;SDS011;50151;52.030;5.350;2023-12-28T08:26:49;14.38;;;2.08;;
63965;SDS011;50151;52.030;5.350;2023-12-28T08:29:16;9.35;;;1.90;;
63965;SDS011;50151;52.030;5.350;2023-12-28T08:31:44;12.18;;;2.63;;
63965;SDS011;50151;52.030;5.350;2023-12-28T08:34:13;9.25;;;2.00;;
63965;SDS011;50151;52.030;5.350;2023-12-28T08:36:41;15.50;;;2.78;;
63965;SDS011;50151;52.030;5.350;2023-12-28T08:39:08;10.40;;;2.22;;
63965;SDS011;50151;52.030;5.350;2023-12-28T08:41:35;12.57;;;2.85;;
63965;SDS011;50151;52.030;5.350;2023-12-28T08:44:02;12.38;;;2.13;;
63965;SDS011;50151;52.030;5.350;2023-12-28T08:46:29;12.38;;;2.22;;
63965;SDS011;50151;52.030;5.350;2023-12-28T08:48:55;12.27;;;2.60;;
63965;SDS011;50151;52.030;5.350;2023-12-28T08:51:22;13.30;;;2.38;;
63965;SDS011;50151;52.030;5.350;2023-12-28T08:53:49;9.63;;;1.85;;
63965;SDS011;50151;52.030;5.350;2023-12-28T08:56:18;12.35;;;2.22;;
63965;SDS011;50151;52.030;5.350;2023-12-28T08:58:46;14.48;;;2.42;;
63965;SDS011;50151;52.030;5.350;2023-12-28T09:01:17;12.82;;;2.15;;
63965;SDS011;50151;52.030;5.350;2023-12-28T09:03:55;15.27;;;2.28;;
63965;SDS011;50151;52.030;5.350;2023-12-28T09:06:22;20.70;;;2.53;;
63965;SDS011;50151;52.030;5.350;2023-12-28T09:08:49;9.05;;;2.47;;
63965;SDS011;50151;52.030;5.350;2023-12-28T09:11:18;14.25;;;2.20;;
63965;SDS011;50151;52.030;5.350;2023-12-28T09:13:45;11.00;;;2.50;;
63965;SDS011;50151;52.030;5.350;2023-12-28T09:16:13;16.98;;;2.53;;
63965;SDS011;50151;52.030;5.350;2023-12-28T09:18:41;18.95;;;2.20;;
63965;SDS011;50151;52.030;5.350;2023-12-28T09:21:09;13.48;;;2.47;;
63965;SDS011;50151;52.030;5.350;2023-12-28T09:23:36;18.00;;;2.15;;
63965;SDS011;50151;52.030;5.350;2023-12-28T09:26:04;10.82;;;2.45;;
63965;SDS011;50151;52.030;5.350;2023-12-28T09:28:32;19.27;;;2.85;;
63965;SDS011;50151;52.030;5.350;2023-12-28T09:30:59;18.05;;;2.72;;
63965;SDS011;50151;52.030;5.350;2023-12-28T09:33:27;11.38;;;2.28;;
63965;SDS011;50151;52.030;5.350;2023-12-28T09:35:54;14.85;;;2.90;;
63965;SDS011;50151;52.030;5.350;2023-12-28T09:38:21;18.38;;;2.47;;
63965;SDS011;50151;52.030;5.350;2023-12-28T09:40:50;12.05;;;2.13;;
63965;SDS011;50151;52.030;5.350;2023-12-28T09:45:51;9.90;;;2.13;;
63965;SDS011;50151;52.030;5.350;2023-12-28T09:48:19;16.70;;;2.85;;
63965;SDS011;50151;52.030;5.350;2023-12-28T09:50:50;11.77;;;2.25;;
63965;SDS011;50151;52.030;5.350;2023-12-28T09:53:21;12.65;;;2.92;;
63965;SDS011;50151;52.030;5.350;2023-12-28T09:55:49;13.25;;;2.75;;
63965;SDS011;50151;52.030;5.350;2023-12-28T09:58:18;12.45;;;2.65;;
63965;SDS011;50151;52.030;5.350;2023-12-28T10:00:46;15.38;;;2.10;;
63965;SDS011;50151;52.030;5.350;2023-12-28T10:03:15;18.73;;;2.38;;
63965;SDS011;50151;52.030;5.350;2023-12-28T10:05:43;13.93;;;2.17;;
63965;SDS011;50151;52.030;5.350;2023-12-28T10:08:11;15.57;;;2.38;;
63965;SDS011;50151;52.030;5.350;2023-12-28T10:10:42;9.57;;;2.17;;
63965;SDS011;50151;52.030;5.350;2023-12-28T10:13:17;15.25;;;2.22;;
63965;SDS011;50151;52.030;5.350;2023-12-28T10:15:44;24.30;;;3.22;;
63965;SDS011;50151;52.030;5.350;2023-12-28T10:18:11;17.00;;;2.80;;
63965;SDS011;50151;52.030;5.350;2023-12-28T10:20:38;14.30;;;2.05;;
63965;SDS011;50151;52.030;5.350;2023-12-28T10:23:05;13.20;;;2.47;;
63965;SDS011;50151;52.030;5.350;2023-12-28T10:25:33;11.13;;;2.45;;
63965;SDS011;50151;52.030;5.350;2023-12-28T10:28:03;13.35;;;2.40;;
63965;SDS011;50151;52.030;5.350;2023-12-28T10:30:32;16.15;;;2.65;;
63965;SDS011;50151;52.030;5.350;2023-12-28T10:32:59;14.63;;;2.25;;
63965;SDS011;50151;52.030;5.350;2023-12-28T10:35:27;12.27;;;2.10;;
63965;SDS011;50151;52.030;5.350;2023-12-28T10:37:54;16.90;;;3.10;;
63965;SDS011;50151;52.030;5.350;2023-12-28T10:40:25;21.48;;;2.80;;
63965;SDS011;50151;52.030;5.350;2023-12-28T10:45:29;20.42;;;3.05;;
63965;SDS011;50151;52.030;5.350;2023-12-28T10:50:38;14.13;;;2.60;;
63965;SDS011;50151;52.030;5.350;2023-12-28T10:53:19;15.10;;;2.00;;
63965;SDS011;50151;52.030;5.350;2023-12-28T10:58:36;13.68;;;2.67;;
63965;SDS011;50151;52.030;5.350;2023-12-28T11:01:12;9.02;;;2.10;;
63965;SDS011;50151;52.030;5.350;2023-12-28T11:03:46;18.90;;;2.60;;
63965;SDS011;50151;52.030;5.350;2023-12-28T11:06:17;13.82;;;2.33;;
63965;SDS011;50151;52.030;5.350;2023-12-28T11:08:44;15.30;;;2.60;;
63965;SDS011;50151;52.030;5.350;2023-12-28T11:11:16;8.45;;;1.27;;
63965;SDS011;50151;52.030;5.350;2023-12-28T11:13:44;13.50;;;2.72;;
63965;SDS011;50151;52.030;5.350;2023-12-28T11:16:11;17.73;;;2.58;;
63965;SDS011;50151;52.030;5.350;2023-12-28T11:18:39;17.40;;;2.42;;
63965;SDS011;50151;52.030;5.350;2023-12-28T11:21:07;14.00;;;3.33;;
63965;SDS011;50151;52.030;5.350;2023-12-28T11:23:35;19.27;;;3.38;;
63965;SDS011;50151;52.030;5.350;2023-12-28T11:26:02;19.83;;;3.17;;
63965;SDS011;50151;52.030;5.350;2023-12-28T11:28:29;12.18;;;2.55;;
63965;SDS011;50151;52.030;5.350;2023-12-28T11:30:56;12.82;;;2.60;;
63965;SDS011;50151;52.030;5.350;2023-12-28T11:33:23;15.65;;;2.22;;
63965;SDS011;50151;52.030;5.350;2023-12-28T11:35:57;16.13;;;2.60;;
63965;SDS011;50151;52.030;5.350;2023-12-28T11:38:24;17.63;;;3.00;;
63965;SDS011;50151;52.030;5.350;2023-12-28T11:40:51;15.15;;;2.35;;
63965;SDS011;50151;52.030;5.350;2023-12-28T11:43:21;17.50;;;3.35;;
63965;SDS011;50151;52.030;5.350;2023-12-28T11:45:50;20.70;;;3.30;;
63965;SDS011;50151;52.030;5.350;2023-12-28T11:48:26;17.80;;;2.78;;
63965;SDS011;50151;52.030;5.350;2023-12-28T11:50:55;18.88;;;2.58;;
63965;SDS011;50151;52.030;5.350;2023-12-28T11:53:26;11.15;;;2.42;;
63965;SDS011;50151;52.030;5.350;2023-12-28T11:55:59;18.92;;;2.28;;
63965;SDS011;50151;52.030;5.350;2023-12-28T11:58:29;13.80;;;2.20;;
63965;SDS011;50151;52.030;5.350;2023-12-28T12:00:56;8.48;;;2.08;;
63965;SDS011;50151;52.030;5.350;2023-12-28T12:03:24;19.00;;;3.33;;
63965;SDS011;50151;52.030;5.350;2023-12-28T12:05:52;14.68;;;3.13;;
63965;SDS011;50151;52.030;5.350;2023-12-28T12:08:20;22.80;;;2.72;;
63965;SDS011;50151;52.030;5.350;2023-12-28T12:10:47;18.00;;;3.50;;
63965;SDS011;50151;52.030;5.350;2023-12-28T12:13:14;15.77;;;2.30;;
63965;SDS011;50151;52.030;5.350;2023-12-28T12:15:41;21.75;;;2.92;;
63965;SDS011;50151;52.030;5.350;2023-12-28T12:18:08;14.95;;;2.10;;
63965;SDS011;50151;52.030;5.350;2023-12-28T12:20:36;15.20;;;2.50;;
63965;SDS011;50151;52.030;5.350;2023-12-28T12:23:05;12.85;;;2.30;;
63965;SDS011;50151;52.030;5.350;2023-12-28T12:25:31;16.50;;;2.58;;
63965;SDS011;50151;52.030;5.350;2023-12-28T12:27:58;15.00;;;2.75;;
63965;SDS011;50151;52.030;5.350;2023-12-28T12:30:25;18.50;;;2.92;;
63965;SDS011;50151;52.030;5.350;2023-12-28T12:32:52;19.33;;;2.55;;
63965;SDS011;50151;52.030;5.350;2023-12-28T12:35:19;18.67;;;2.80;;
63965;SDS011;50151;52.030;5.350;2023-12-28T12:37:47;18.83;;;2.75;;
63965;SDS011;50151;52.030;5.350;2023-12-28T12:40:16;10.77;;;1.83;;
63965;SDS011;50151;52.030;5.350;2023-12-28T12:42:55;14.95;;;2.40;;
63965;SDS011;50151;52.030;5.350;2023-12-28T12:45:22;12.95;;;1.90;;
63965;SDS011;50151;52.030;5.350;2023-12-28T12:47:51;9.43;;;1.75;;
63965;SDS011;50151;52.030;5.350;2023-12-28T12:50:18;11.98;;;2.22;;
63965;SDS011;50151;52.030;5.350;2023-12-28T12:52:46;12.15;;;2.53;;
63965;SDS011;50151;52.030;5.350;2023-12-28T12:55:14;12.30;;;1.98;;
63965;SDS011;50151;52.030;5.350;2023-12-28T12:57:41;11.90;;;1.95;;
63965;SDS011;50151;52.030;5.350;2023-12-28T13:00:11;16.98;;;3.80;;
63965;SDS011;50151;52.030;5.350;2023-12-28T13:02:38;13.50;;;2.33;;
63965;SDS011;50151;52.030;5.350;2023-12-28T13:05:05;13.23;;;2.90;;
63965;SDS011;50151;52.030;5.350;2023-12-28T13:07:32;11.52;;;2.05;;
63965;SDS011;50151;52.030;5.350;2023-12-28T13:10:00;15.80;;;2.10;;
63965;SDS011;50151;52.030;5.350;2023-12-28T13:12:27;14.02;;;2.58;;
63965;SDS011;50151;52.030;5.350;2023-12-28T13:14:53;17.35;;;2.38;;
63965;SDS011;50151;52.030;5.350;2023-12-28T13:17:20;18.48;;;2.35;;
63965;SDS011;50151;52.030;5.350;2023-12-28T13:19:47;9.45;;;1.95;;
63965;SDS011;50151;52.030;5.350;2023-12-28T13:22:14;18.38;;;2.78;;
63965;SDS011;50151;52.030;5.350;2023-12-28T13:24:41;14.90;;;2.67;;
63965;SDS011;50151;52.030;5.350;2023-12-28T13:27:08;19.20;;;2.17;;
63965;SDS011;50151;52.030;5.350;2023-12-28T13:29:36;18.55;;;3.17;;
63965;SDS011;50151;52.030;5.350;2023-12-28T13:32:03;15.02;;;3.05;;
63965;SDS011;50151;52.030;5.350;2023-12-28T13:34:30;10.98;;;1.75;;
63965;SDS011;50151;52.030;5.350;2023-12-28T13:36:57;13.45;;;2.60;;
63965;SDS011;50151;52.030;5.350;2023-12-28T13:39:25;13.18;;;2.28;;
63965;SDS011;50151;52.030;5.350;2023-12-28T13:41:54;17.48;;;2.22;;
63965;SDS011;50151;52.030;5.350;2023-12-28T13:44:21;16.13;;;2.33;;
63965;SDS011;50151;52.030;5.350;2023-12-28T13:46:48;12.30;;;2.38;;
63965;SDS011;50151;52.030;5.350;2023-12-28T13:49:15;15.15;;;2.80;;
63965;SDS011;50151;52.030;5.350;2023-12-28T13:51:42;9.88;;;1.67;;
63965;SDS011;50151;52.030;5.350;2023-12-28T13:54:08;11.05;;;2.08;;
63965;SDS011;50151;52.030;5.350;2023-12-28T13:56:35;13.30;;;2.28;;
63965;SDS011;50151;52.030;5.350;2023-12-28T13:59:02;16.95;;;2.58;;
63965;SDS011;50151;52.030;5.350;2023-12-28T14:01:29;13.88;;;2.50;;
63965;SDS011;50151;52.030;5.350;2023-12-28T14:03:55;9.90;;;1.77;;
63965;SDS011;50151;52.030;5.350;2023-12-28T14:06:23;14.68;;;2.83;;
63965;SDS011;50151;52.030;5.350;2023-12-28T14:08:50;19.05;;;2.60;;
63965;SDS011;50151;52.030;5.350;2023-12-28T14:11:17;17.02;;;2.88;;
63965;SDS011;50151;52.030;5.350;2023-12-28T14:13:43;15.68;;;2.22;;
63965;SDS011;50151;52.030;5.350;2023-12-28T14:16:10;16.63;;;2.97;;
63965;SDS011;50151;52.030;5.350;2023-12-28T14:18:37;17.33;;;2.88;;
63965;SDS011;50151;52.030;5.350;2023-12-28T14:21:06;17.45;;;2.78;;
63965;SDS011;50151;52.030;5.350;2023-12-28T14:23:33;18.05;;;2.85;;
63965;SDS011;50151;52.030;5.350;2023-12-28T14:26:01;15.13;;;2.95;;
63965;SDS011;50151;52.030;5.350;2023-12-28T14:28:30;8.27;;;1.90;;
63965;SDS011;50151;52.030;5.350;2023-12-28T14:31:00;12.32;;;2.30;;
63965;SDS011;50151;52.030;5.350;2023-12-28T14:33:27;15.00;;;2.08;;
63965;SDS011;50151;52.030;5.350;2023-12-28T14:35:54;16.88;;;2.58;;
63965;SDS011;50151;52.030;5.350;2023-12-28T14:38:21;21.02;;;2.50;;
63965;SDS011;50151;52.030;5.350;2023-12-28T14:40:48;14.23;;;2.72;;
63965;SDS011;50151;52.030;5.350;2023-12-28T14:43:17;9.73;;;2.20;;
63965;SDS011;50151;52.030;5.350;2023-12-28T14:45:44;16.00;;;2.00;;
63965;SDS011;50151;52.030;5.350;2023-12-28T14:48:12;9.23;;;1.90;;
63965;SDS011;50151;52.030;5.350;2023-12-28T14:50:40;9.38;;;1.75;;
63965;SDS011;50151;52.030;5.350;2023-12-28T14:53:06;17.55;;;2.97;;
63965;SDS011;50151;52.030;5.350;2023-12-28T14:55:37;12.23;;;2.03;;
63965;SDS011;50151;52.030;5.350;2023-12-28T14:58:04;14.25;;;2.85;;